Time;durP1;ratioP1;P1;durP2;ratioP2;P2;SDS_P1;SDS_P2;PMS_P1;PMS_P2;Temp;Humidity;BMP_temperature;BMP_pressure;BME280_temperature;BME280_humidity;BME280_pressure;Samples;Min_cycle;Max_cycle;Signal;HPM_P1;HPM_P2
2023/06/28 00:00:14;;;;;;;0.10;0.10;;;19.60;99.90;;;;;;5021438;28;20264;-79
2023/06/28 00:02:40;;;;;;;0.10;0.10;;;19.60;99.90;;;;;;5022297;28;20710;-79
2023/06/28 00:05:07;;;;;;;0.10;0.10;;;19.60;99.90;;;;;;5021126;28;20200;-79
2023/06/28 00:07:33;;;;;;;0.10;0.10;;;19.70;99.90;;;;;;5021494;28;20214;-79
2023/06/28 00:10:00;;;;;;;0.10;0.10;;;19.80;99.90;;;;;;5022542;28;20212;-79
2023/06/28 00:12:27;;;;;;;0.10;0.10;;;19.90;99.90;;;;;;5018852;28;20202;-79
2023/06/28 00:14:54;;;;;;;0.10;0.10;;;20.00;99.90;;;;;;5021602;28;20178;-79
2023/06/28 00:17:27;;;;;;;0.10;0.10;;;20.00;99.90;;;;;;5020449;28;20543;-79
2023/06/28 00:19:54;;;;;;;0.10;0.10;;;20.10;99.90;;;;;;5020970;28;20191;-79
2023/06/28 00:22:23;;;;;;;0.10;0.10;;;20.00;99.90;;;;;;5020220;28;20209;-78
2023/06/28 00:24:48;;;;;;;0.10;0.10;;;20.00;99.90;;;;;;5021121;28;20214;-79
2023/06/28 00:27:14;;;;;;;0.10;0.10;;;20.00;99.90;;;;;;5019746;28;20292;-79
2023/06/28 00:29:39;;;;;;;0.10;0.10;;;19.70;99.90;;;;;;5020272;28;20179;-79
2023/06/28 00:32:05;;;;;;;0.10;0.10;;;19.80;99.90;;;;;;5021516;28;20680;-79
2023/06/28 00:34:31;;;;;;;0.10;0.10;;;20.00;99.90;;;;;;5022326;28;20189;-78
2023/06/28 00:36:56;;;;;;;0.10;0.10;;;20.00;99.90;;;;;;5022449;28;20186;-79
2023/06/28 00:39:22;;;;;;;0.10;0.10;;;20.00;99.90;;;;;;5019559;28;20213;-79
2023/06/28 00:41:47;;;;;;;0.10;0.10;;;19.90;99.90;;;;;;5020663;28;20190;-79
2023/06/28 00:44:13;;;;;;;0.10;0.10;;;19.90;99.90;;;;;;5022277;28;20186;-79
2023/06/28 00:46:39;;;;;;;0.10;0.10;;;19.90;99.90;;;;;;5022640;28;20209;-78
2023/06/28 00:49:05;;;;;;;0.10;0.10;;;19.70;99.90;;;;;;5024775;28;20178;-79
2023/06/28 00:51:31;;;;;;;0.10;0.10;;;19.80;99.90;;;;;;5025486;28;20280;-79
2023/06/28 00:53:58;;;;;;;0.10;0.10;;;19.90;99.90;;;;;;5027000;28;20210;-79
2023/06/28 00:56:24;;;;;;;0.10;0.10;;;19.80;99.90;;;;;;5026522;28;20187;-79
2023/06/28 00:58:51;;;;;;;0.10;0.10;;;19.60;99.90;;;;;;5028446;28;20182;-78
2023/06/28 01:01:17;;;;;;;0.10;0.10;;;19.80;99.90;;;;;;5030311;28;20182;-79
2023/06/28 01:03:42;;;;;;;0.10;0.10;;;19.90;99.90;;;;;;5034753;28;20289;-78
2023/06/28 01:06:12;;;;;;;0.10;0.10;;;20.10;99.90;;;;;;5033045;28;20194;-79
2023/06/28 01:08:40;;;;;;;0.10;0.10;;;20.20;99.90;;;;;;5032191;28;20202;-78
2023/06/28 01:11:07;;;;;;;0.10;0.10;;;20.00;99.90;;;;;;5031076;28;20186;-78
2023/06/28 01:13:35;;;;;;;0.10;0.10;;;19.80;99.90;;;;;;5027487;28;20190;-78
2023/06/28 01:16:01;;;;;;;0.10;0.10;;;19.60;99.90;;;;;;5027973;28;20186;-78
2023/06/28 01:18:27;;;;;;;0.10;0.10;;;19.20;99.90;;;;;;5025999;28;20190;-78
2023/06/28 01:20:54;;;;;;;0.10;0.10;;;19.20;99.90;;;;;;5024636;28;20210;-78
2023/06/28 01:23:26;;;;;;;0.10;0.10;;;19.20;99.90;;;;;;5026867;28;20233;-78
2023/06/28 01:25:53;;;;;;;0.10;0.10;;;19.00;99.90;;;;;;5027645;28;20179;-78
2023/06/28 01:28:21;;;;;;;0.10;0.10;;;19.00;99.90;;;;;;5028245;28;20212;-78
2023/06/28 01:30:49;;;;;;;0.10;0.10;;;19.00;99.90;;;;;;5027211;28;20190;-78
2023/06/28 01:33:17;;;;;;;0.10;0.10;;;18.90;99.90;;;;;;5028654;28;20837;-78
2023/06/28 01:35:43;;;;;;;0.10;0.10;;;19.00;99.90;;;;;;5025590;28;20261;-78
2023/06/28 01:38:10;;;;;;;0.10;0.10;;;19.10;99.90;;;;;;5026660;28;20273;-79
2023/06/28 01:40:37;;;;;;;0.10;0.10;;;19.00;99.90;;;;;;5026778;28;20185;-78
2023/06/28 01:43:06;;;;;;;0.10;0.10;;;19.00;99.90;;;;;;5027472;28;20202;-78
2023/06/28 01:45:35;;;;;;;0.10;0.10;;;19.00;99.90;;;;;;5025796;28;20187;-78
2023/06/28 01:48:02;;;;;;;0.10;0.10;;;19.00;99.90;;;;;;5025323;28;20225;-79
2023/06/28 01:50:28;;;;;;;0.10;0.10;;;19.00;99.90;;;;;;5025690;28;20272;-78
2023/06/28 01:52:57;;;;;;;0.10;0.10;;;19.20;99.90;;;;;;5024027;28;20198;-79
2023/06/28 01:55:22;;;;;;;0.10;0.10;;;19.30;99.90;;;;;;5027184;28;20181;-78
2023/06/28 01:57:48;;;;;;;0.10;0.10;;;19.40;99.90;;;;;;5027322;28;20193;-78
2023/06/28 02:00:15;;;;;;;0.10;0.10;;;19.30;99.90;;;;;;5026622;28;20211;-79
2023/06/28 02:02:41;;;;;;;0.10;0.10;;;19.20;99.90;;;;;;5026723;28;20229;-78
2023/06/28 02:05:07;;;;;;;0.10;0.10;;;19.10;99.90;;;;;;5024204;28;20255;-79
2023/06/28 02:07:32;;;;;;;0.10;0.10;;;19.10;99.90;;;;;;5026050;28;20209;-79
2023/06/28 02:09:58;;;;;;;0.10;0.10;;;19.00;99.90;;;;;;5028475;28;20178;-79
2023/06/28 02:12:24;;;;;;;0.10;0.10;;;19.00;99.90;;;;;;5024730;28;20749;-79
2023/06/28 02:14:51;;;;;;;0.10;0.10;;;19.00;99.90;;;;;;5025194;28;20208;-78
2023/06/28 02:17:20;;;;;;;0.10;0.10;;;19.10;99.90;;;;;;5027209;28;20178;-79
2023/06/28 02:19:46;;;;;;;0.10;0.10;;;19.10;99.90;;;;;;5023779;28;20214;-79
2023/06/28 02:22:12;;;;;;;0.10;0.10;;;19.10;99.90;;;;;;5023889;28;20202;-79
2023/06/28 02:24:37;;;;;;;0.10;0.10;;;18.90;99.90;;;;;;5025056;28;20240;-78
2023/06/28 02:27:04;;;;;;;0.10;0.10;;;19.00;99.90;;;;;;5025022;28;20206;-79
2023/06/28 02:29:30;;;;;;;0.10;0.10;;;19.00;99.90;;;;;;5023806;28;20185;-79
2023/06/28 02:31:56;;;;;;;0.10;0.10;;;18.90;99.90;;;;;;5025464;28;20177;-79
2023/06/28 02:34:22;;;;;;;0.10;0.10;;;19.00;99.90;;;;;;5023612;28;20184;-78
2023/06/28 02:36:47;;;;;;;0.10;0.10;;;18.80;99.90;;;;;;5024145;28;20206;-79
2023/06/28 02:39:13;;;;;;;0.10;0.10;;;18.80;99.90;;;;;;5023422;28;20288;-79
2023/06/28 02:41:38;;;;;;;0.10;0.10;;;18.80;99.90;;;;;;5025239;28;20225;-79
2023/06/28 02:44:04;;;;;;;0.10;0.10;;;18.70;99.90;;;;;;5025729;28;20305;-78
2023/06/28 02:46:30;;;;;;;0.10;0.10;;;18.60;99.90;;;;;;5024191;28;21377;-79
2023/06/28 02:48:55;;;;;;;0.10;0.10;;;18.60;99.90;;;;;;5024829;28;20278;-79
2023/06/28 02:51:21;;;;;;;0.10;0.10;;;18.50;99.90;;;;;;5021125;28;20178;-81
2023/06/28 02:53:46;;;;;;;0.10;0.10;;;18.70;99.90;;;;;;5022999;28;20198;-81
2023/06/28 02:56:15;;;;;;;0.10;0.10;;;18.80;99.90;;;;;;5021158;28;20266;-82
2023/06/28 02:58:41;;;;;;;0.10;0.10;;;18.70;99.90;;;;;;5022991;28;20189;-82
2023/06/28 03:01:07;;;;;;;0.10;0.10;;;18.60;99.90;;;;;;5023340;28;20214;-81
2023/06/28 03:03:34;;;;;;;0.10;0.10;;;18.70;99.90;;;;;;5022113;28;20242;-81
2023/06/28 03:06:00;;;;;;;0.10;0.10;;;18.70;99.90;;;;;;5023054;28;21007;-81
2023/06/28 03:08:25;;;;;;;0.10;0.10;;;18.60;99.90;;;;;;5022324;28;20202;-82
2023/06/28 03:10:51;;;;;;;0.10;0.10;;;18.50;99.90;;;;;;5022585;28;20185;-81
2023/06/28 03:13:16;;;;;;;0.10;0.10;;;18.50;99.90;;;;;;5022777;28;20254;-81
2023/06/28 03:15:42;;;;;;;0.10;0.10;;;18.50;99.90;;;;;;5023331;28;20503;-81
2023/06/28 03:18:07;;;;;;;0.10;0.10;;;18.60;99.90;;;;;;5022079;28;20207;-81
2023/06/28 03:20:33;;;;;;;0.10;0.10;;;18.60;99.90;;;;;;5023202;28;20195;-81
2023/06/28 03:22:58;;;;;;;0.10;0.10;;;18.80;99.90;;;;;;5021912;28;20202;-82
2023/06/28 03:25:24;;;;;;;0.10;0.10;;;18.80;99.90;;;;;;5021867;28;20197;-82
2023/06/28 03:27:49;;;;;;;0.10;0.10;;;18.60;99.90;;;;;;5020936;28;20208;-82
2023/06/28 03:30:15;;;;;;;0.10;0.10;;;18.50;99.90;;;;;;5024226;28;20210;-82
2023/06/28 03:32:41;;;;;;;0.10;0.10;;;18.50;99.90;;;;;;5022957;28;20237;-82
2023/06/28 03:35:07;;;;;;;0.10;0.10;;;18.60;99.90;;;;;;5024868;28;20224;-81
2023/06/28 03:37:33;;;;;;;0.10;0.10;;;18.50;99.90;;;;;;5021647;28;20246;-81
2023/06/28 03:39:59;;;;;;;0.10;0.10;;;18.50;99.90;;;;;;5024647;28;20175;-82
2023/06/28 03:42:24;;;;;;;0.10;0.10;;;18.40;99.90;;;;;;5022857;28;20201;-81
2023/06/28 03:44:50;;;;;;;0.10;0.10;;;18.50;99.90;;;;;;5022399;28;20189;-81
2023/06/28 03:47:15;;;;;;;0.10;0.10;;;18.40;99.90;;;;;;5022086;28;20209;-82
2023/06/28 03:49:41;;;;;;;0.10;0.10;;;18.60;99.90;;;;;;5021496;28;20186;-81
2023/06/28 03:52:07;;;;;;;0.10;0.10;;;18.40;99.90;;;;;;5021532;28;20202;-81
2023/06/28 03:54:32;;;;;;;0.10;0.10;;;18.20;99.90;;;;;;5021691;28;20637;-81
2023/06/28 03:56:58;;;;;;;0.10;0.10;;;18.10;99.90;;;;;;5021268;28;20567;-81
2023/06/28 03:59:24;;;;;;;0.10;0.10;;;18.10;99.90;;;;;;5023183;28;20822;-82
2023/06/28 04:01:49;;;;;;;0.10;0.10;;;18.00;99.90;;;;;;5017764;28;20954;-81
2023/06/28 04:04:15;;;;;;;0.10;0.10;;;18.00;99.90;;;;;;5022945;28;20183;-81
2023/06/28 04:06:41;;;;;;;0.00;0.00;;;18.00;99.90;;;;;;5020166;28;20578;-81
2023/06/28 04:09:08;;;;;;;0.10;0.10;;;18.00;99.90;;;;;;5020023;28;20190;-81
2023/06/28 04:11:33;;;;;;;0.10;0.10;;;18.00;99.90;;;;;;5020029;28;20273;-82
2023/06/28 04:13:59;;;;;;;0.10;0.10;;;17.90;99.90;;;;;;5021294;28;20290;-81
2023/06/28 04:16:25;;;;;;;0.10;0.10;;;18.00;99.90;;;;;;5018897;28;20178;-82
2023/06/28 04:18:52;;;;;;;0.10;0.10;;;18.00;99.90;;;;;;5019907;28;20190;-82
2023/06/28 04:21:18;;;;;;;0.10;0.10;;;18.00;99.90;;;;;;5018773;28;20965;-81
2023/06/28 04:23:44;;;;;;;0.10;0.10;;;18.00;99.90;;;;;;5017687;28;20214;-81
2023/06/28 04:26:09;;;;;;;0.10;0.10;;;18.00;99.90;;;;;;5016658;28;20191;-82
2023/06/28 04:28:35;;;;;;;0.10;0.10;;;18.10;99.90;;;;;;5019634;28;20703;-81
2023/06/28 04:31:01;;;;;;;0.10;0.10;;;18.20;99.90;;;;;;5017832;28;20318;-82
2023/06/28 04:33:29;;;;;;;0.10;0.10;;;18.10;99.90;;;;;;5019183;28;20210;-81
2023/06/28 04:35:56;;;;;;;0.10;0.10;;;18.20;99.90;;;;;;5025185;28;20685;-81
2023/06/28 04:38:22;;;;;;;0.10;0.10;;;18.00;99.90;;;;;;5027084;28;20186;-81
2023/06/28 04:40:49;;;;;;;0.10;0.10;;;18.00;99.90;;;;;;5022671;28;20204;-82
2023/06/28 04:43:15;;;;;;;0.10;0.10;;;18.10;99.90;;;;;;5023941;28;20206;-81
2023/06/28 04:45:41;;;;;;;0.10;0.10;;;18.20;99.90;;;;;;5026988;28;20201;-82
2023/06/28 04:48:07;;;;;;;0.10;0.10;;;18.00;99.90;;;;;;5025855;28;20202;-82
2023/06/28 04:50:33;;;;;;;0.10;0.10;;;18.20;99.90;;;;;;5025593;28;20174;-81
2023/06/28 04:52:59;;;;;;;0.10;0.10;;;18.10;99.90;;;;;;5032838;28;20204;-81
2023/06/28 04:55:25;;;;;;;0.10;0.10;;;18.00;99.90;;;;;;5026279;28;20174;-81
2023/06/28 04:57:51;;;;;;;0.10;0.10;;;18.10;99.90;;;;;;5023748;28;20664;-81
2023/06/28 05:00:17;;;;;;;0.10;0.10;;;18.10;99.90;;;;;;5025820;28;20177;-81
2023/06/28 05:02:43;;;;;;;0.10;0.10;;;18.00;99.90;;;;;;5027609;28;20255;-81
2023/06/28 05:05:08;;;;;;;0.10;0.10;;;18.00;99.90;;;;;;5025232;28;20202;-81
2023/06/28 05:07:34;;;;;;;0.10;0.10;;;18.00;99.90;;;;;;5024608;28;20209;-80
2023/06/28 05:10:00;;;;;;;0.10;0.10;;;18.00;99.90;;;;;;5026077;28;20689;-81
2023/06/28 05:12:25;;;;;;;0.10;0.10;;;17.90;99.90;;;;;;5022607;28;20198;-81
2023/06/28 05:14:51;;;;;;;0.10;0.10;;;18.00;99.90;;;;;;5023799;28;20178;-81
2023/06/28 05:17:16;;;;;;;0.10;0.10;;;18.10;99.90;;;;;;5024846;28;20229;-83
2023/06/28 05:19:42;;;;;;;0.10;0.10;;;18.20;99.90;;;;;;5022836;28;20791;-84
2023/06/28 05:22:08;;;;;;;0.10;0.10;;;18.20;99.90;;;;;;5022698;28;20555;-84
2023/06/28 05:24:33;;;;;;;0.10;0.10;;;18.00;99.90;;;;;;5023420;28;20199;-84
2023/06/28 05:26:59;;;;;;;0.10;0.10;;;18.10;99.90;;;;;;5021880;28;20652;-83
2023/06/28 05:29:25;;;;;;;0.10;0.10;;;18.00;99.90;;;;;;5024162;28;20178;-83
2023/06/28 05:31:50;;;;;;;0.10;0.10;;;18.00;99.90;;;;;;5028276;28;20185;-83
2023/06/28 05:34:16;;;;;;;0.10;0.10;;;17.80;99.90;;;;;;5023548;28;20272;-84
2023/06/28 05:36:42;;;;;;;0.10;0.10;;;18.00;99.90;;;;;;5026604;28;20175;-84
2023/06/28 05:39:08;;;;;;;0.10;0.10;;;18.10;99.90;;;;;;5025533;28;20185;-82
2023/06/28 05:41:33;;;;;;;0.10;0.10;;;18.40;99.90;;;;;;5024964;28;22785;-82
2023/06/28 05:43:59;;;;;;;0.10;0.10;;;18.40;99.90;;;;;;5025789;28;20245;-82
2023/06/28 05:46:24;;;;;;;0.10;0.10;;;18.40;99.90;;;;;;5024249;28;20187;-81
2023/06/28 05:48:50;;;;;;;0.10;0.10;;;18.60;99.90;;;;;;5026735;28;20208;-81
2023/06/28 05:51:16;;;;;;;0.10;0.10;;;18.60;99.90;;;;;;5023772;28;20269;-82
2023/06/28 05:53:42;;;;;;;0.10;0.10;;;18.60;99.90;;;;;;5026439;28;20284;-82
2023/06/28 05:56:08;;;;;;;0.10;0.10;;;18.40;99.90;;;;;;5026865;28;20195;-82
2023/06/28 05:58:33;;;;;;;0.10;0.10;;;18.40;99.90;;;;;;5026505;28;20577;-81
2023/06/28 06:01:00;;;;;;;0.10;0.10;;;18.50;99.90;;;;;;5025358;28;20279;-82
2023/06/28 06:03:26;;;;;;;0.10;0.10;;;18.60;99.90;;;;;;5021049;28;20202;-82
2023/06/28 06:05:53;;;;;;;0.10;0.10;;;18.60;99.90;;;;;;5023352;28;20317;-82
2023/06/28 06:08:19;;;;;;;0.10;0.10;;;18.70;99.90;;;;;;5023896;28;20216;-82
2023/06/28 06:10:44;;;;;;;0.10;0.10;;;18.70;99.90;;;;;;5024276;28;20296;-82
2023/06/28 06:13:10;;;;;;;0.10;0.10;;;18.70;99.90;;;;;;5023257;28;20203;-82
2023/06/28 06:15:35;;;;;;;0.10;0.10;;;18.80;99.90;;;;;;5022682;28;20210;-82
2023/06/28 06:18:01;;;;;;;0.10;0.10;;;18.60;99.90;;;;;;5023368;28;20217;-82
2023/06/28 06:20:26;;;;;;;0.10;0.10;;;18.30;99.90;;;;;;5025144;28;20209;-81
2023/06/28 06:22:52;;;;;;;0.10;0.10;;;18.40;99.90;;;;;;5022335;28;20210;-82
2023/06/28 06:25:17;;;;;;;0.10;0.10;;;18.50;99.90;;;;;;5022335;28;20190;-82
2023/06/28 06:27:43;;;;;;;0.10;0.10;;;18.70;99.90;;;;;;5025718;28;20200;-82
2023/06/28 06:30:10;;;;;;;0.10;0.10;;;18.80;99.90;;;;;;5022404;28;20236;-82
2023/06/28 06:32:36;;;;;;;0.10;0.10;;;18.80;99.90;;;;;;5024231;28;20235;-82
2023/06/28 06:35:02;;;;;;;0.10;0.10;;;18.90;99.90;;;;;;5032941;28;20217;-82
2023/06/28 06:37:28;;;;;;;0.10;0.10;;;19.00;99.90;;;;;;5023694;28;20188;-81
2023/06/28 06:39:54;;;;;;;0.10;0.10;;;19.10;99.90;;;;;;5027767;28;20198;-82
2023/06/28 06:42:19;;;;;;;0.10;0.10;;;19.20;99.90;;;;;;5029155;28;20198;-82
2023/06/28 06:44:45;;;;;;;0.10;0.10;;;19.20;99.90;;;;;;5028167;28;20190;-82
2023/06/28 06:47:10;;;;;;;0.10;0.10;;;19.30;99.90;;;;;;5021851;28;20557;-82
2023/06/28 06:49:36;;;;;;;0.10;0.10;;;19.40;99.90;;;;;;5025592;28;20189;-82
2023/06/28 06:52:02;;;;;;;0.10;0.10;;;19.30;99.90;;;;;;5022893;28;20187;-81
2023/06/28 06:54:29;;;;;;;0.10;0.10;;;19.30;99.90;;;;;;5022210;28;20187;-82
2023/06/28 06:56:56;;;;;;;0.10;0.10;;;19.40;99.90;;;;;;5019048;28;20197;-82
2023/06/28 06:59:23;;;;;;;0.10;0.10;;;19.40;99.90;;;;;;5025159;28;20182;-81
2023/06/28 07:01:50;;;;;;;0.10;0.10;;;19.20;99.90;;;;;;5021703;28;20269;-81
2023/06/28 07:04:16;;;;;;;0.10;0.10;;;19.10;99.90;;;;;;5023015;28;20190;-82
2023/06/28 07:06:44;;;;;;;0.10;0.10;;;18.90;99.90;;;;;;5025035;28;20205;-82
2023/06/28 07:09:10;;;;;;;0.10;0.10;;;18.70;99.90;;;;;;5021371;28;20193;-82
2023/06/28 07:11:36;;;;;;;0.10;0.10;;;18.60;99.90;;;;;;5022161;28;20182;-82
2023/06/28 07:14:02;;;;;;;0.10;0.10;;;18.70;99.90;;;;;;5022575;28;20198;-82
2023/06/28 07:16:27;;;;;;;0.10;0.10;;;18.70;99.90;;;;;;5019192;28;20177;-83
2023/06/28 07:18:54;;;;;;;0.10;0.10;;;18.70;99.90;;;;;;5020639;28;20536;-80
2023/06/28 07:21:20;;;;;;;0.10;0.10;;;18.70;99.90;;;;;;5018781;28;20196;-81
2023/06/28 07:23:46;;;;;;;0.10;0.10;;;18.70;99.90;;;;;;5022248;28;20209;-82
2023/06/28 07:26:14;;;;;;;0.10;0.10;;;18.70;99.90;;;;;;5019486;28;20198;-82
2023/06/28 07:28:40;;;;;;;0.10;0.10;;;18.70;99.90;;;;;;5021269;28;20329;-81
2023/06/28 07:31:05;;;;;;;0.10;0.10;;;18.90;99.90;;;;;;5023173;28;21287;-82
2023/06/28 07:33:31;;;;;;;0.10;0.10;;;19.00;99.90;;;;;;5017706;28;21673;-82
2023/06/28 07:35:57;;;;;;;0.10;0.10;;;19.10;99.90;;;;;;5018851;28;20758;-82
2023/06/28 07:38:23;;;;;;;0.10;0.10;;;19.10;99.90;;;;;;5022784;28;20228;-82
2023/06/28 07:40:49;;;;;;;0.10;0.10;;;19.30;99.90;;;;;;5020045;28;20188;-82
2023/06/28 07:43:17;;;;;;;0.10;0.10;;;19.60;99.90;;;;;;5022589;28;20256;-82
2023/06/28 07:45:42;;;;;;;0.10;0.10;;;19.70;99.90;;;;;;5016850;28;20191;-82
2023/06/28 07:48:08;;;;;;;0.10;0.10;;;19.90;99.90;;;;;;5019056;28;20210;-82
2023/06/28 07:50:35;;;;;;;0.10;0.10;;;20.00;99.90;;;;;;5019462;28;20190;-82
2023/06/28 07:53:01;;;;;;;0.10;0.10;;;20.20;99.90;;;;;;5020561;28;20240;-82
2023/06/28 07:55:29;;;;;;;0.10;0.10;;;20.00;99.90;;;;;;5019793;28;20210;-82
2023/06/28 07:57:56;;;;;;;0.10;0.10;;;20.00;99.90;;;;;;5018372;28;20247;-82
2023/06/28 08:00:22;;;;;;;0.10;0.10;;;19.80;99.90;;;;;;5018895;28;20194;-81
2023/06/28 08:02:48;;;;;;;0.10;0.10;;;20.10;99.90;;;;;;5016771;28;20226;-82
2023/06/28 08:05:14;;;;;;;0.10;0.10;;;20.30;99.90;;;;;;5017614;28;20742;-82
2023/06/28 08:07:40;;;;;;;0.10;0.10;;;20.40;99.90;;;;;;5018677;28;20217;-82
2023/06/28 08:10:05;;;;;;;0.10;0.10;;;20.40;99.90;;;;;;5017854;28;20183;-81
2023/06/28 08:12:31;;;;;;;0.10;0.10;;;20.50;99.90;;;;;;5022720;28;20210;-81
2023/06/28 08:14:56;;;;;;;0.10;0.10;;;20.60;99.90;;;;;;5020738;28;20182;-82
2023/06/28 08:17:22;;;;;;;0.10;0.10;;;20.90;99.90;;;;;;5021568;28;20226;-82
2023/06/28 08:19:48;;;;;;;0.10;0.10;;;20.90;99.90;;;;;;5019721;28;20226;-81
2023/06/28 08:22:13;;;;;;;0.10;0.10;;;20.60;99.90;;;;;;5019525;28;20206;-81
2023/06/28 08:24:39;;;;;;;0.10;0.10;;;20.50;99.90;;;;;;5021801;28;20576;-82
2023/06/28 08:27:06;;;;;;;0.10;0.10;;;20.40;99.90;;;;;;5023166;28;20269;-82
2023/06/28 08:29:31;;;;;;;0.10;0.10;;;19.90;99.90;;;;;;5022471;28;20190;-82
2023/06/28 08:31:57;;;;;;;0.10;0.10;;;19.70;99.90;;;;;;5020035;28;20237;-81
2023/06/28 08:34:23;;;;;;;0.10;0.10;;;19.80;99.90;;;;;;5017382;28;20186;-82
2023/06/28 08:36:48;;;;;;;0.10;0.10;;;19.90;99.90;;;;;;5021117;28;20276;-82
2023/06/28 08:39:14;;;;;;;0.10;0.10;;;19.80;99.90;;;;;;5020889;28;20628;-82
2023/06/28 08:41:41;;;;;;;0.10;0.10;;;19.90;99.90;;;;;;5022217;28;20228;-82
2023/06/28 08:44:12;;;;;;;0.10;0.10;;;20.00;99.90;;;;;;5020488;28;21009;-81
2023/06/28 08:46:39;;;;;;;0.10;0.10;;;20.00;99.90;;;;;;5024544;28;20183;-82
2023/06/28 08:49:06;;;;;;;0.10;0.10;;;20.30;99.90;;;;;;5022664;28;20706;-82
2023/06/28 08:51:32;;;;;;;0.10;0.10;;;20.60;99.90;;;;;;5022026;28;20183;-82
2023/06/28 08:53:58;;;;;;;0.10;0.10;;;20.80;99.90;;;;;;5021057;28;20217;-81
2023/06/28 08:56:25;;;;;;;0.10;0.10;;;21.00;99.90;;;;;;5022182;28;20581;-81
2023/06/28 08:58:52;;;;;;;0.10;0.10;;;21.50;99.90;;;;;;5021423;28;20750;-82
2023/06/28 09:01:20;;;;;;;0.10;0.10;;;22.30;99.90;;;;;;5021580;28;20526;-82
2023/06/28 09:03:47;;;;;;;0.10;0.10;;;22.80;99.90;;;;;;5023018;28;20210;-82
2023/06/28 09:06:13;;;;;;;0.10;0.10;;;23.10;99.90;;;;;;5020041;28;20213;-81
2023/06/28 09:08:39;;;;;;;0.10;0.10;;;23.40;99.90;;;;;;5020006;28;20210;-82
2023/06/28 09:11:05;;;;;;;0.10;0.10;;;23.80;99.90;;;;;;5022033;28;20183;-82
2023/06/28 09:13:31;;;;;;;0.10;0.10;;;23.90;99.90;;;;;;5018836;28;20201;-82
2023/06/28 09:15:57;;;;;;;0.10;0.10;;;24.10;99.90;;;;;;5017779;28;20190;-82
2023/06/28 09:18:22;;;;;;;0.10;0.10;;;24.10;99.90;;;;;;5020334;28;20190;-82
2023/06/28 09:20:52;;;;;;;0.10;0.10;;;23.70;99.90;;;;;;5017619;28;20327;-82
2023/06/28 09:23:26;;;;;;;0.10;0.10;;;24.30;99.90;;;;;;5021309;28;20228;-81
2023/06/28 09:25:52;;;;;;;0.10;0.10;;;24.50;99.90;;;;;;5026357;28;20640;-81
2023/06/28 09:28:19;;;;;;;0.10;0.10;;;25.00;99.90;;;;;;5028473;28;20245;-82
2023/06/28 09:30:51;;;;;;;0.10;0.10;;;25.20;99.90;;;;;;5024057;28;20178;-82
2023/06/28 09:33:18;;;;;;;0.10;0.10;;;25.40;99.90;;;;;;5024293;28;20206;-82
2023/06/28 09:35:44;;;;;;;0.10;0.10;;;25.40;99.90;;;;;;5025771;28;20186;-82
2023/06/28 09:38:10;;;;;;;0.10;0.10;;;25.20;99.90;;;;;;5024685;28;20185;-82
2023/06/28 09:40:35;;;;;;;0.10;0.10;;;25.00;99.90;;;;;;5025140;28;20603;-82
2023/06/28 09:43:02;;;;;;;0.10;0.10;;;24.80;99.90;;;;;;5024551;28;20233;-82
2023/06/28 09:45:30;;;;;;;0.10;0.10;;;24.80;99.90;;;;;;5025157;28;20652;-82
2023/06/28 09:47:59;;;;;;;0.10;0.10;;;24.70;99.90;;;;;;5024234;28;20280;-82
2023/06/28 09:51:04;;;;;;;0.10;0.10;;;24.70;99.90;;;;;;5032189;28;20179;-82
2023/06/28 09:53:31;;;;;;;0.10;0.10;;;24.70;99.90;;;;;;5002502;28;20218;-82
2023/06/28 09:55:57;;;;;;;0.10;0.10;;;24.70;99.90;;;;;;5024053;28;20210;-82
2023/06/28 09:58:27;;;;;;;0.10;0.10;;;24.60;99.90;;;;;;5025994;28;20228;-82
2023/06/28 10:00:53;;;;;;;0.10;0.10;;;24.90;99.90;;;;;;5020826;28;20643;-82
2023/06/28 10:03:24;;;;;;;0.10;0.10;;;24.90;99.90;;;;;;5019913;28;20214;-82
2023/06/28 10:05:54;;;;;;;0.10;0.10;;;24.90;99.90;;;;;;5023237;28;20201;-82
2023/06/28 10:08:20;;;;;;;0.10;0.10;;;25.10;99.90;;;;;;5022755;28;20209;-82
2023/06/28 10:10:46;;;;;;;0.10;0.10;;;25.20;99.90;;;;;;5022982;28;20199;-82
2023/06/28 10:13:18;;;;;;;0.10;0.10;;;25.20;99.90;;;;;;5023825;28;20300;-82
2023/06/28 10:15:56;;;;;;;0.10;0.10;;;25.10;99.90;;;;;;5023426;28;20289;-82
2023/06/28 10:18:22;;;;;;;0.10;0.10;;;25.20;99.90;;;;;;5024718;28;20186;-82
2023/06/28 10:20:48;;;;;;;0.10;0.10;;;25.30;99.90;;;;;;5021825;28;21630;-82
2023/06/28 10:23:13;;;;;;;0.10;0.10;;;25.50;99.90;;;;;;5022218;28;20253;-81
2023/06/28 10:25:41;;;;;;;0.10;0.10;;;25.70;99.90;;;;;;5022554;28;20190;-82
2023/06/28 10:28:06;;;;;;;0.10;0.10;;;25.30;99.90;;;;;;5018589;28;20310;-82
2023/06/28 10:30:33;;;;;;;0.10;0.10;;;25.50;99.90;;;;;;5022582;28;20258;-82
2023/06/28 10:33:00;;;;;;;0.10;0.10;;;25.70;99.90;;;;;;5020921;28;20301;-82
2023/06/28 10:35:26;;;;;;;0.10;0.10;;;25.60;99.90;;;;;;5024717;28;20182;-82
2023/06/28 10:37:56;;;;;;;0.10;0.10;;;25.50;99.90;;;;;;5021458;28;20222;-82
2023/06/28 10:40:22;;;;;;;0.10;0.10;;;25.50;99.90;;;;;;5023645;28;20244;-82
2023/06/28 10:42:48;;;;;;;0.10;0.10;;;25.80;99.90;;;;;;5019593;28;20218;-81
2023/06/28 10:45:13;;;;;;;0.10;0.10;;;26.10;99.90;;;;;;5027174;28;20236;-82
2023/06/28 10:47:59;;;;;;;0.10;0.10;;;26.30;99.90;;;;;;5022358;28;20222;-82
2023/06/28 10:50:25;;;;;;;0.10;0.10;;;26.40;99.90;;;;;;5021104;28;20190;-81
2023/06/28 10:52:57;;;;;;;0.10;0.10;;;26.10;99.90;;;;;;5021901;28;20248;-82
2023/06/28 10:55:55;;;;;;;0.10;0.10;;;26.90;99.90;;;;;;5022951;28;20265;-82
2023/06/28 10:58:26;;;;;;;0.10;0.10;;;26.60;99.90;;;;;;5021280;28;20656;-84
2023/06/28 11:00:52;;;;;;;0.10;0.10;;;26.60;99.90;;;;;;5019795;28;20284;-82
2023/06/28 11:03:19;;;;;;;0.10;0.10;;;26.10;99.90;;;;;;5021051;28;20218;-82
2023/06/28 11:05:44;;;;;;;0.10;0.10;;;25.80;99.90;;;;;;5021329;28;20218;-81
2023/06/28 11:08:15;;;;;;;0.10;0.10;;;26.30;99.90;;;;;;5014409;28;20214;-82
2023/06/28 11:10:47;;;;;;;0.20;0.20;;;25.70;99.90;;;;;;5020510;28;20240;-82
2023/06/28 11:13:32;;;;;;;0.10;0.10;;;26.30;99.90;;;;;;5031394;28;20288;-82
2023/06/28 11:16:08;;;;;;;0.10;0.10;;;26.50;99.90;;;;;;5020674;28;20191;-81
2023/06/28 11:18:33;;;;;;;0.10;0.10;;;26.50;99.90;;;;;;5026070;28;20209;-81
2023/06/28 11:20:59;;;;;;;0.10;0.10;;;26.40;99.90;;;;;;5026148;28;20220;-82
2023/06/28 11:23:37;;;;;;;0.10;0.10;;;26.00;99.90;;;;;;5023382;28;20671;-82
2023/06/28 11:26:04;;;;;;;0.10;0.10;;;25.90;99.90;;;;;;5023594;28;20683;-81
2023/06/28 11:28:32;;;;;;;0.10;0.10;;;25.80;99.90;;;;;;5022703;28;20217;-82
2023/06/28 11:31:17;;;;;;;0.10;0.10;;;25.70;99.90;;;;;;5022604;28;20649;-83
2023/06/28 11:33:43;;;;;;;0.10;0.10;;;25.50;99.90;;;;;;5022289;28;20220;-82
2023/06/28 11:36:10;;;;;;;0.10;0.10;;;25.60;99.90;;;;;;5023193;28;20194;-82
2023/06/28 11:38:36;;;;;;;0.10;0.10;;;25.80;99.90;;;;;;5023869;28;20187;-82
2023/06/28 11:41:02;;;;;;;0.10;0.10;;;25.80;99.90;;;;;;5013311;28;20246;-82
2023/06/28 11:43:28;;;;;;;0.10;0.10;;;25.80;99.90;;;;;;5021508;28;20217;-82
2023/06/28 11:45:54;;;;;;;0.10;0.10;;;26.20;99.90;;;;;;5020479;28;20182;-82
2023/06/28 11:48:23;;;;;;;0.10;0.10;;;26.40;99.90;;;;;;5014448;28;20241;-82
2023/06/28 11:50:59;;;;;;;0.10;0.10;;;26.50;99.90;;;;;;5013569;28;20190;-82
2023/06/28 11:53:26;;;;;;;0.10;0.10;;;27.00;99.90;;;;;;5021169;28;21187;-82
2023/06/28 11:55:54;;;;;;;0.10;0.10;;;27.60;99.90;;;;;;5021019;28;20236;-81
2023/06/28 11:58:36;;;;;;;0.10;0.10;;;27.40;99.90;;;;;;5022043;28;20301;-82
2023/06/28 12:01:05;;;;;;;0.10;0.10;;;27.00;99.90;;;;;;5019006;28;20196;-82
2023/06/28 12:03:35;;;;;;;0.10;0.10;;;26.80;99.90;;;;;;5023619;28;20213;-82
2023/06/28 12:06:04;;;;;;;0.10;0.10;;;26.90;99.90;;;;;;5022805;28;20343;-82
2023/06/28 12:08:37;;;;;;;0.10;0.10;;;27.10;99.90;;;;;;5020884;28;20584;-82
2023/06/28 12:11:16;;;;;;;0.10;0.10;;;26.70;99.90;;;;;;5019662;28;20281;-82
2023/06/28 12:13:42;;;;;;;0.10;0.10;;;26.70;99.90;;;;;;5021712;28;20440;-82
2023/06/28 12:16:13;;;;;;;0.10;0.10;;;26.80;99.90;;;;;;5021156;28;20263;-82
2023/06/28 12:19:01;;;;;;;0.10;0.10;;;26.50;99.90;;;;;;5019856;28;20190;-82
2023/06/28 12:21:29;;;;;;;0.10;0.10;;;26.40;99.90;;;;;;5018085;28;20197;-82
2023/06/28 12:24:10;;;;;;;0.10;0.10;;;26.30;99.90;;;;;;5021317;28;20202;-82
2023/06/28 12:26:36;;;;;;;0.10;0.10;;;26.50;99.90;;;;;;5020770;28;20248;-81
2023/06/28 12:29:01;;;;;;;0.10;0.10;;;26.70;99.90;;;;;;5020853;28;20622;-82
2023/06/28 12:31:49;;;;;;;0.10;0.10;;;26.50;99.90;;;;;;5019294;28;20186;-82
2023/06/28 12:34:24;;;;;;;0.10;0.10;;;27.00;99.90;;;;;;5021010;28;20206;-82
2023/06/28 12:37:07;;;;;;;0.10;0.10;;;27.30;99.90;;;;;;5024472;28;20548;-82
2023/06/28 12:39:34;;;;;;;0.10;0.10;;;27.70;99.90;;;;;;5021220;28;20209;-82
2023/06/28 12:42:06;;;;;;;0.10;0.10;;;27.70;99.90;;;;;;5024980;28;20220;-83
2023/06/28 12:44:50;;;;;;;0.10;0.10;;;27.60;99.90;;;;;;5022711;28;20582;-82
2023/06/28 12:47:20;;;;;;;0.10;0.10;;;27.20;99.90;;;;;;5021627;28;20190;-82